createdAt,value
2022-11-06T00:00:21.834Z,-68
2022-11-06T00:05:42.170Z,-69
2022-11-06T00:10:44.354Z,-69
2022-11-06T00:15:46.247Z,-68
2022-11-06T00:20:48.157Z,-69
2022-11-06T00:25:53.339Z,-68
2022-11-06T00:31:05.152Z,-67
2022-11-06T00:36:09.735Z,-68
2022-11-06T00:41:14.114Z,-69
2022-11-06T00:46:16.567Z,-68
2022-11-06T00:51:21.836Z,-71
2022-11-06T00:56:24.509Z,-70
2022-11-06T01:01:29.364Z,-69
2022-11-06T01:06:33.734Z,-69
2022-11-06T01:12:11.704Z,-69
2022-11-06T01:17:06.660Z,-69
2022-11-06T01:22:09.035Z,-70
2022-11-06T01:27:27.386Z,-70
2022-11-06T01:32:29.690Z,-70
2022-11-06T01:37:31.670Z,-70
2022-11-06T01:42:33.598Z,-69
2022-11-06T01:47:35.620Z,-69
2022-11-06T01:52:38.399Z,-70
2022-11-06T01:57:47.842Z,-69
2022-11-06T02:03:04.127Z,-70
2022-11-06T02:08:07.987Z,-70
2022-11-06T02:13:28.775Z,-69
2022-11-06T02:18:50.677Z,-69
2022-11-06T02:24:24.920Z,-69
2022-11-06T02:29:38.517Z,-69
2022-11-06T02:34:43.394Z,-69
2022-11-06T02:39:47.106Z,-69
2022-11-06T02:44:50.404Z,-70
2022-11-06T02:50:00.217Z,-70
2022-11-06T02:55:29.091Z,-69
2022-11-06T03:00:33.740Z,-68
2022-11-06T03:05:54.804Z,-70
2022-11-06T03:11:20.906Z,-69
2022-11-06T03:16:40.839Z,-70
2022-11-06T03:22:09.535Z,-70
2022-11-06T03:27:22.197Z,-70
2022-11-06T03:32:48.974Z,-70
2022-11-06T03:38:08.221Z,-70
2022-11-06T03:43:14.490Z,-69
2022-11-06T03:48:32.430Z,-70
2022-11-06T03:53:37.930Z,-69
2022-11-06T03:58:45.109Z,-69
2022-11-06T04:04:01.964Z,-69
2022-11-06T04:09:25.599Z,-71
2022-11-06T04:14:31.029Z,-70
2022-11-06T04:19:33.077Z,-69
2022-11-06T04:24:59.992Z,-69
2022-11-06T04:30:13.950Z,-70
2022-11-06T04:35:39.996Z,-70
2022-11-06T04:41:03.667Z,-69
2022-11-06T04:46:08.315Z,-70
2022-11-06T04:51:11.982Z,-70
2022-11-06T04:56:25.540Z,-70
2022-11-06T05:01:27.824Z,-70
2022-11-06T05:06:30.411Z,-68
2022-11-06T05:11:32.594Z,-69
2022-11-06T05:16:34.916Z,-69
2022-11-06T05:21:55.250Z,-70
2022-11-06T05:26:59.575Z,-70
2022-11-06T05:32:01.944Z,-70
2022-11-06T05:37:03.975Z,-70
2022-11-06T05:42:05.874Z,-70
2022-11-06T05:47:07.912Z,-70
2022-11-06T05:52:10.120Z,-70
2022-11-06T05:57:12.319Z,-70
2022-11-06T06:02:14.371Z,-70
2022-11-06T06:07:16.339Z,-70
2022-11-06T06:12:18.583Z,-70
2022-11-06T06:17:21.072Z,-70
2022-11-06T06:22:22.951Z,-70
2022-11-06T06:27:27.544Z,-70
2022-11-06T06:32:29.472Z,-70
2022-11-06T06:37:31.405Z,-70
2022-11-06T06:42:33.349Z,-70
2022-11-06T06:47:35.261Z,-69
2022-11-06T06:52:37.198Z,-70
2022-11-06T06:57:39.145Z,-72
2022-11-06T07:02:41.023Z,-70
2022-11-06T07:07:43.197Z,-71
2022-11-06T07:12:51.683Z,-72
2022-11-06T07:18:07.845Z,-71
2022-11-06T07:23:10.002Z,-71
2022-11-06T07:28:11.913Z,-71
2022-11-06T07:33:14.028Z,-71
2022-11-06T07:38:16.254Z,-71
2022-11-06T07:43:18.426Z,-72
2022-11-06T07:48:20.543Z,-68
2022-11-06T07:53:23.128Z,-73
2022-11-06T07:58:26.094Z,-68
2022-11-06T08:03:31.292Z,-66
2022-11-06T08:08:33.402Z,-66
2022-11-06T08:13:35.886Z,-67
2022-11-06T08:18:38.596Z,-66
2022-11-06T08:23:40.690Z,-67
2022-11-06T08:28:42.774Z,-67
2022-11-06T08:33:44.690Z,-67
2022-11-06T08:38:49.740Z,-67
2022-11-06T08:43:52.550Z,-70
2022-11-06T08:48:54.521Z,-68
2022-11-06T08:53:58.054Z,-71
2022-11-06T08:59:00.209Z,-65
2022-11-06T09:04:02.233Z,-71
2022-11-06T09:09:04.262Z,-67
2022-11-06T09:14:12.645Z,-66
2022-11-06T09:19:14.647Z,-65
2022-11-06T09:24:16.792Z,-66
2022-11-06T09:29:18.743Z,-71
2022-11-06T09:34:20.684Z,-69
2022-11-06T09:39:22.598Z,-69
2022-11-06T09:44:49.647Z,-69
2022-11-06T09:49:56.568Z,-65
2022-11-06T09:55:10.348Z,-64
2022-11-06T10:00:15.556Z,-64
2022-11-06T10:05:30.749Z,-65
2022-11-06T10:10:38.601Z,-64
2022-11-06T10:15:50.759Z,-65
2022-11-06T10:20:54.648Z,-65
2022-11-06T10:26:17.117Z,-64
2022-11-06T10:31:45.138Z,-65
2022-11-06T10:36:59.480Z,-64
2022-11-06T10:42:16.279Z,-65
2022-11-06T10:47:30.071Z,-65
2022-11-06T10:52:50.636Z,-64
2022-11-06T10:57:56.952Z,-64
2022-11-06T11:03:01.995Z,-64
2022-11-06T11:08:04.125Z,-65
2022-11-06T11:13:08.665Z,-64
2022-11-06T11:18:18.660Z,-65
2022-11-06T11:23:25.018Z,-66
2022-11-06T11:28:34.449Z,-65
2022-11-06T11:33:38.542Z,-65
2022-11-06T11:38:42.002Z,-65
2022-11-06T11:43:44.019Z,-66
2022-11-06T11:48:55.889Z,-65
2022-11-06T11:54:11.352Z,-68
2022-11-06T11:59:27.794Z,-64
2022-11-06T12:04:32.313Z,-66
2022-11-06T12:09:42.892Z,-65
2022-11-06T12:14:44.781Z,-66
2022-11-06T12:19:53.388Z,-66
2022-11-06T12:25:10.047Z,-66
2022-11-06T12:30:16.378Z,-66
2022-11-06T12:35:30.987Z,-64
2022-11-06T12:40:39.690Z,-63
2022-11-06T12:45:54.996Z,-66
2022-11-06T12:51:25.606Z,-66
2022-11-06T12:56:48.942Z,-67
2022-11-06T13:02:03.000Z,-66
2022-11-06T13:07:46.920Z,-64
2022-11-06T13:13:19.277Z,-64
2022-11-06T13:18:30.284Z,-65
2022-11-06T13:23:51.126Z,-65
2022-11-06T13:28:57.112Z,-64
2022-11-06T13:34:02.948Z,-65
2022-11-06T13:39:35.858Z,-64
2022-11-06T13:44:37.975Z,-64
2022-11-06T13:50:00.913Z,-64
2022-11-06T13:55:24.155Z,-65
2022-11-06T14:00:44.320Z,-66
2022-11-06T14:05:53.295Z,-65
2022-11-06T14:11:11.776Z,-65
2022-11-06T14:16:14.135Z,-65
2022-11-06T14:21:38.104Z,-65
2022-11-06T14:26:44.138Z,-65
2022-11-06T14:32:10.268Z,-65
2022-11-06T14:37:18.354Z,-65
2022-11-06T14:42:29.719Z,-66
2022-11-06T14:47:36.243Z,-66
2022-11-06T14:52:48.394Z,-65
2022-11-06T14:57:53.289Z,-65
2022-11-06T15:02:55.251Z,-65
2022-11-06T15:08:04.902Z,-65
2022-11-06T15:13:17.931Z,-65
2022-11-06T15:18:23.025Z,-65
2022-11-06T15:24:10.237Z,-65
2022-11-06T15:29:26.475Z,-65
2022-11-06T15:34:36.561Z,-65
2022-11-06T15:40:00.273Z,-67
2022-11-06T15:45:06.729Z,-66
2022-11-06T15:50:19.963Z,-65
2022-11-06T15:55:36.275Z,-65
2022-11-06T16:00:42.293Z,-64
2022-11-06T16:05:45.870Z,-64
2022-11-06T16:10:50.870Z,-65
2022-11-06T16:16:01.248Z,-65
2022-11-06T16:21:13.407Z,-65
2022-11-06T16:26:38.250Z,-63
2022-11-06T16:31:40.204Z,-64
2022-11-06T16:37:03.590Z,-65
2022-11-06T16:42:16.755Z,-66
2022-11-06T16:47:22.928Z,-64
2022-11-06T16:52:33.615Z,-64
2022-11-06T16:57:43.212Z,-64
2022-11-06T17:02:55.645Z,-65
2022-11-06T17:08:16.362Z,-65
2022-11-06T17:13:22.036Z,-64
2022-11-06T17:18:38.039Z,-64
2022-11-06T17:23:41.063Z,-64
2022-11-06T17:28:42.935Z,-64
2022-11-06T17:33:51.242Z,-64
2022-11-06T17:38:57.612Z,-64
2022-11-06T17:44:04.281Z,-67
2022-11-06T17:49:06.995Z,-65
2022-11-06T17:54:09.873Z,-65
2022-11-06T17:59:13.310Z,-65
2022-11-06T18:04:15.233Z,-65
2022-11-06T18:09:17.088Z,-64
2022-11-06T18:14:20.600Z,-65
2022-11-06T18:19:24.277Z,-65
2022-11-06T18:24:26.363Z,-65
2022-11-06T18:29:28.248Z,-64
2022-11-06T18:34:30.171Z,-65
2022-11-06T18:39:32.412Z,-65
2022-11-06T18:44:41.619Z,-65
2022-11-06T18:49:43.496Z,-66
2022-11-06T18:54:45.447Z,-65
2022-11-06T18:59:47.306Z,-70
2022-11-06T19:04:49.209Z,-65
2022-11-06T19:09:51.152Z,-66
2022-11-06T19:14:53.100Z,-65
2022-11-06T19:19:55.010Z,-65
2022-11-06T19:24:56.985Z,-65
2022-11-06T19:30:00.469Z,-66
2022-11-06T19:35:02.570Z,-74
2022-11-06T19:40:06.353Z,-71
2022-11-06T19:45:09.167Z,-70
2022-11-06T19:50:11.124Z,-67
2022-11-06T19:55:25.688Z,-66
2022-11-06T20:00:29.046Z,-69
2022-11-06T20:05:31.221Z,-76
2022-11-06T20:10:35.135Z,-68
2022-11-06T20:15:37.120Z,-67
2022-11-06T20:20:38.966Z,-65
2022-11-06T20:25:40.938Z,-67
2022-11-06T20:30:42.811Z,-68
2022-11-06T20:35:45.142Z,-68
2022-11-06T20:40:46.988Z,-78
2022-11-06T20:45:49.369Z,-68
2022-11-06T20:51:06.391Z,-67
2022-11-06T20:56:12.450Z,-67
2022-11-06T21:01:18.152Z,-67
2022-11-06T21:06:21.696Z,-68
2022-11-06T21:11:25.081Z,-67
2022-11-06T21:16:32.836Z,-67
2022-11-06T21:21:37.480Z,-68
2022-11-06T21:26:40.097Z,-67
2022-11-06T21:31:48.599Z,-69
2022-11-06T21:36:51.453Z,-68
2022-11-06T21:41:53.367Z,-69
2022-11-06T21:46:55.560Z,-67
2022-11-06T21:52:17.351Z,-68
2022-11-06T21:57:19.240Z,-70
2022-11-06T22:02:21.324Z,-71
2022-11-06T22:07:23.275Z,-69
2022-11-06T22:12:25.183Z,-71
2022-11-06T22:17:27.264Z,-69
2022-11-06T22:22:29.613Z,-68
2022-11-06T22:27:31.634Z,-76
2022-11-06T22:32:33.468Z,-73
2022-11-06T22:37:35.419Z,-76
2022-11-06T22:42:37.251Z,-77
2022-11-06T22:47:39.992Z,-75
2022-11-06T22:52:41.916Z,-77
2022-11-06T22:57:43.750Z,-76
2022-11-06T23:02:45.695Z,-72
2022-11-06T23:07:47.660Z,-69
2022-11-06T23:12:49.575Z,-69
2022-11-06T23:17:52.623Z,-72
2022-11-06T23:22:54.707Z,-72
2022-11-06T23:27:58.330Z,-72
2022-11-06T23:33:00.196Z,-71
2022-11-06T23:38:02.410Z,-72
2022-11-06T23:43:04.282Z,-69
2022-11-06T23:48:12.741Z,-67
2022-11-06T23:53:16.477Z,-74
2022-11-06T23:58:18.755Z,-73
